sensor_id;sensor_type;location;lat;lon;timestamp;P1;durP1;ratioP1;P2;durP2;ratioP2
31798;SDS011;18374;51.136;3.502;2023-05-14T00:00:39;59.95;;;28.75;;
31798;SDS011;18374;51.136;3.502;2023-05-14T00:03:06;54.67;;;28.65;;
31798;SDS011;18374;51.136;3.502;2023-05-14T00:05:34;55.38;;;29.30;;
31798;SDS011;18374;51.136;3.502;2023-05-14T00:08:02;49.17;;;26.67;;
31798;SDS011;18374;51.136;3.502;2023-05-14T00:10:30;58.20;;;29.05;;
31798;SDS011;18374;51.136;3.502;2023-05-14T00:12:58;60.08;;;28.48;;
31798;SDS011;18374;51.136;3.502;2023-05-14T00:15:26;51.45;;;27.42;;
31798;SDS011;18374;51.136;3.502;2023-05-14T00:17:53;57.67;;;28.55;;
31798;SDS011;18374;51.136;3.502;2023-05-14T00:20:21;57.42;;;29.80;;
31798;SDS011;18374;51.136;3.502;2023-05-14T00:22:49;63.33;;;29.58;;
31798;SDS011;18374;51.136;3.502;2023-05-14T00:25:17;65.78;;;32.00;;
31798;SDS011;18374;51.136;3.502;2023-05-14T00:27:45;59.38;;;30.75;;
31798;SDS011;18374;51.136;3.502;2023-05-14T00:30:12;64.40;;;30.50;;
31798;SDS011;18374;51.136;3.502;2023-05-14T00:32:41;62.97;;;28.70;;
31798;SDS011;18374;51.136;3.502;2023-05-14T00:35:09;70.20;;;30.92;;
31798;SDS011;18374;51.136;3.502;2023-05-14T00:37:36;57.60;;;28.02;;
31798;SDS011;18374;51.136;3.502;2023-05-14T00:40:05;67.38;;;30.02;;
31798;SDS011;18374;51.136;3.502;2023-05-14T00:42:34;57.65;;;28.52;;
31798;SDS011;18374;51.136;3.502;2023-05-14T00:45:02;68.43;;;31.13;;
31798;SDS011;18374;51.136;3.502;2023-05-14T00:47:31;71.97;;;31.95;;
31798;SDS011;18374;51.136;3.502;2023-05-14T00:50:01;66.15;;;31.10;;
31798;SDS011;18374;51.136;3.502;2023-05-14T00:52:30;74.82;;;32.00;;
31798;SDS011;18374;51.136;3.502;2023-05-14T00:54:59;65.18;;;31.77;;
31798;SDS011;18374;51.136;3.502;2023-05-14T00:57:30;62.47;;;31.23;;
31798;SDS011;18374;51.136;3.502;2023-05-14T00:59:59;63.50;;;30.38;;
31798;SDS011;18374;51.136;3.502;2023-05-14T01:02:28;54.80;;;29.70;;
31798;SDS011;18374;51.136;3.502;2023-05-14T01:04:56;59.20;;;29.23;;
31798;SDS011;18374;51.136;3.502;2023-05-14T01:07:39;64.63;;;28.65;;
31798;SDS011;18374;51.136;3.502;2023-05-14T01:10:56;63.80;;;29.35;;
31798;SDS011;18374;51.136;3.502;2023-05-14T01:13:52;62.28;;;29.83;;
31798;SDS011;18374;51.136;3.502;2023-05-14T01:16:29;61.67;;;30.23;;
31798;SDS011;18374;51.136;3.502;2023-05-14T01:19:00;58.47;;;29.10;;
31798;SDS011;18374;51.136;3.502;2023-05-14T01:21:36;57.00;;;28.33;;
31798;SDS011;18374;51.136;3.502;2023-05-14T01:24:06;70.38;;;32.20;;
31798;SDS011;18374;51.136;3.502;2023-05-14T01:26:35;64.30;;;33.20;;
31798;SDS011;18374;51.136;3.502;2023-05-14T01:29:14;72.57;;;30.75;;
31798;SDS011;18374;51.136;3.502;2023-05-14T01:31:49;60.95;;;30.13;;
31798;SDS011;18374;51.136;3.502;2023-05-14T01:34:19;57.15;;;29.55;;
31798;SDS011;18374;51.136;3.502;2023-05-14T01:36:50;65.75;;;29.85;;
31798;SDS011;18374;51.136;3.502;2023-05-14T01:39:19;65.88;;;30.00;;
31798;SDS011;18374;51.136;3.502;2023-05-14T01:41:49;75.45;;;32.42;;
31798;SDS011;18374;51.136;3.502;2023-05-14T01:44:18;60.00;;;29.65;;
31798;SDS011;18374;51.136;3.502;2023-05-14T01:46:47;70.70;;;32.05;;
31798;SDS011;18374;51.136;3.502;2023-05-14T01:49:15;62.97;;;31.38;;
31798;SDS011;18374;51.136;3.502;2023-05-14T01:51:44;62.40;;;29.30;;
31798;SDS011;18374;51.136;3.502;2023-05-14T01:54:12;59.38;;;30.63;;
31798;SDS011;18374;51.136;3.502;2023-05-14T01:56:40;59.72;;;29.08;;
31798;SDS011;18374;51.136;3.502;2023-05-14T01:59:08;63.15;;;30.15;;
31798;SDS011;18374;51.136;3.502;2023-05-14T02:01:36;59.35;;;29.25;;
31798;SDS011;18374;51.136;3.502;2023-05-14T02:04:03;61.17;;;30.52;;
31798;SDS011;18374;51.136;3.502;2023-05-14T02:06:31;66.85;;;30.10;;
31798;SDS011;18374;51.136;3.502;2023-05-14T02:08:59;59.03;;;29.98;;
31798;SDS011;18374;51.136;3.502;2023-05-14T02:11:28;56.35;;;30.08;;
31798;SDS011;18374;51.136;3.502;2023-05-14T02:13:56;58.08;;;29.58;;
31798;SDS011;18374;51.136;3.502;2023-05-14T02:16:23;65.63;;;31.35;;
31798;SDS011;18374;51.136;3.502;2023-05-14T02:18:51;61.08;;;30.48;;
31798;SDS011;18374;51.136;3.502;2023-05-14T02:21:19;62.35;;;30.20;;
31798;SDS011;18374;51.136;3.502;2023-05-14T02:23:47;62.47;;;30.90;;
31798;SDS011;18374;51.136;3.502;2023-05-14T02:26:16;54.85;;;30.90;;
31798;SDS011;18374;51.136;3.502;2023-05-14T02:28:43;56.92;;;29.27;;
31798;SDS011;18374;51.136;3.502;2023-05-14T02:31:12;54.20;;;27.00;;
31798;SDS011;18374;51.136;3.502;2023-05-14T02:33:41;59.13;;;27.90;;
31798;SDS011;18374;51.136;3.502;2023-05-14T02:36:08;64.07;;;29.45;;
31798;SDS011;18374;51.136;3.502;2023-05-14T02:38:37;60.25;;;28.75;;
31798;SDS011;18374;51.136;3.502;2023-05-14T02:41:05;54.10;;;27.27;;
31798;SDS011;18374;51.136;3.502;2023-05-14T02:43:33;51.40;;;27.15;;
31798;SDS011;18374;51.136;3.502;2023-05-14T02:46:00;58.95;;;27.42;;
31798;SDS011;18374;51.136;3.502;2023-05-14T02:48:28;57.35;;;28.77;;
31798;SDS011;18374;51.136;3.502;2023-05-14T02:50:56;61.00;;;28.15;;
31798;SDS011;18374;51.136;3.502;2023-05-14T02:53:23;57.15;;;27.65;;
31798;SDS011;18374;51.136;3.502;2023-05-14T02:55:51;63.22;;;29.27;;
31798;SDS011;18374;51.136;3.502;2023-05-14T02:58:19;64.63;;;29.25;;
31798;SDS011;18374;51.136;3.502;2023-05-14T03:00:54;56.63;;;27.85;;
31798;SDS011;18374;51.136;3.502;2023-05-14T03:03:23;51.55;;;27.95;;
31798;SDS011;18374;51.136;3.502;2023-05-14T03:05:51;64.97;;;28.88;;
31798;SDS011;18374;51.136;3.502;2023-05-14T03:08:19;54.58;;;27.42;;
31798;SDS011;18374;51.136;3.502;2023-05-14T03:10:47;62.20;;;27.70;;
31798;SDS011;18374;51.136;3.502;2023-05-14T03:13:14;58.47;;;28.02;;
31798;SDS011;18374;51.136;3.502;2023-05-14T03:15:43;57.05;;;27.33;;
31798;SDS011;18374;51.136;3.502;2023-05-14T03:18:13;62.55;;;28.35;;
31798;SDS011;18374;51.136;3.502;2023-05-14T03:20:41;55.03;;;28.08;;
31798;SDS011;18374;51.136;3.502;2023-05-14T03:23:08;51.35;;;27.15;;
31798;SDS011;18374;51.136;3.502;2023-05-14T03:25:36;66.63;;;28.73;;
31798;SDS011;18374;51.136;3.502;2023-05-14T03:28:04;66.47;;;27.88;;
31798;SDS011;18374;51.136;3.502;2023-05-14T03:30:32;66.05;;;30.08;;
31798;SDS011;18374;51.136;3.502;2023-05-14T03:32:59;61.33;;;27.95;;
31798;SDS011;18374;51.136;3.502;2023-05-14T03:35:27;56.45;;;28.83;;
31798;SDS011;18374;51.136;3.502;2023-05-14T03:37:55;50.92;;;27.35;;
31798;SDS011;18374;51.136;3.502;2023-05-14T03:40:25;55.42;;;28.48;;
31798;SDS011;18374;51.136;3.502;2023-05-14T03:42:53;61.53;;;27.80;;
31798;SDS011;18374;51.136;3.502;2023-05-14T03:45:22;57.25;;;28.77;;
31798;SDS011;18374;51.136;3.502;2023-05-14T03:47:50;55.50;;;28.52;;
31798;SDS011;18374;51.136;3.502;2023-05-14T03:50:18;57.90;;;27.20;;
31798;SDS011;18374;51.136;3.502;2023-05-14T03:52:46;57.33;;;27.20;;
31798;SDS011;18374;51.136;3.502;2023-05-14T03:55:14;53.13;;;27.00;;
31798;SDS011;18374;51.136;3.502;2023-05-14T03:57:41;60.83;;;28.48;;
31798;SDS011;18374;51.136;3.502;2023-05-14T04:00:10;55.45;;;27.42;;
31798;SDS011;18374;51.136;3.502;2023-05-14T04:02:44;56.40;;;25.85;;
31798;SDS011;18374;51.136;3.502;2023-05-14T04:05:12;56.10;;;27.00;;
31798;SDS011;18374;51.136;3.502;2023-05-14T04:07:39;54.72;;;26.63;;
31798;SDS011;18374;51.136;3.502;2023-05-14T04:10:07;53.90;;;26.20;;
31798;SDS011;18374;51.136;3.502;2023-05-14T04:12:36;62.17;;;28.27;;
31798;SDS011;18374;51.136;3.502;2023-05-14T04:15:05;52.22;;;26.23;;
31798;SDS011;18374;51.136;3.502;2023-05-14T04:17:34;60.40;;;27.63;;
31798;SDS011;18374;51.136;3.502;2023-05-14T04:20:02;51.10;;;26.98;;
31798;SDS011;18374;51.136;3.502;2023-05-14T04:22:30;62.60;;;28.25;;
31798;SDS011;18374;51.136;3.502;2023-05-14T04:24:58;59.08;;;28.80;;
31798;SDS011;18374;51.136;3.502;2023-05-14T04:27:27;58.35;;;28.63;;
31798;SDS011;18374;51.136;3.502;2023-05-14T04:29:54;59.55;;;29.70;;
31798;SDS011;18374;51.136;3.502;2023-05-14T04:32:22;61.33;;;29.70;;
31798;SDS011;18374;51.136;3.502;2023-05-14T04:34:50;65.50;;;30.95;;
31798;SDS011;18374;51.136;3.502;2023-05-14T04:37:18;59.28;;;30.40;;
31798;SDS011;18374;51.136;3.502;2023-05-14T04:39:45;59.25;;;30.30;;
31798;SDS011;18374;51.136;3.502;2023-05-14T04:42:13;55.60;;;29.73;;
31798;SDS011;18374;51.136;3.502;2023-05-14T04:44:41;62.80;;;29.13;;
31798;SDS011;18374;51.136;3.502;2023-05-14T04:47:09;57.42;;;29.15;;
31798;SDS011;18374;51.136;3.502;2023-05-14T04:49:37;48.20;;;27.63;;
31798;SDS011;18374;51.136;3.502;2023-05-14T04:52:05;54.45;;;28.00;;
31798;SDS011;18374;51.136;3.502;2023-05-14T04:54:33;48.78;;;22.48;;
31798;SDS011;18374;51.136;3.502;2023-05-14T04:57:00;49.13;;;25.95;;
31798;SDS011;18374;51.136;3.502;2023-05-14T04:59:29;44.60;;;26.60;;
31798;SDS011;18374;51.136;3.502;2023-05-14T05:01:57;42.97;;;24.58;;
31798;SDS011;18374;51.136;3.502;2023-05-14T05:04:25;47.90;;;23.83;;
31798;SDS011;18374;51.136;3.502;2023-05-14T05:06:53;43.53;;;23.88;;
31798;SDS011;18374;51.136;3.502;2023-05-14T05:09:21;45.40;;;26.48;;
31798;SDS011;18374;51.136;3.502;2023-05-14T05:11:49;50.63;;;26.30;;
31798;SDS011;18374;51.136;3.502;2023-05-14T05:14:16;50.08;;;25.77;;
31798;SDS011;18374;51.136;3.502;2023-05-14T05:16:44;52.05;;;26.85;;
31798;SDS011;18374;51.136;3.502;2023-05-14T05:19:12;49.53;;;25.27;;
31798;SDS011;18374;51.136;3.502;2023-05-14T05:21:40;48.70;;;26.35;;
31798;SDS011;18374;51.136;3.502;2023-05-14T05:24:07;49.15;;;26.20;;
31798;SDS011;18374;51.136;3.502;2023-05-14T05:26:35;50.53;;;26.30;;
31798;SDS011;18374;51.136;3.502;2023-05-14T05:29:03;48.63;;;24.85;;
31798;SDS011;18374;51.136;3.502;2023-05-14T05:31:31;39.92;;;23.52;;
31798;SDS011;18374;51.136;3.502;2023-05-14T05:33:59;45.67;;;25.58;;
31798;SDS011;18374;51.136;3.502;2023-05-14T05:36:27;42.75;;;22.27;;
31798;SDS011;18374;51.136;3.502;2023-05-14T05:38:55;42.53;;;22.23;;
31798;SDS011;18374;51.136;3.502;2023-05-14T05:41:22;40.88;;;23.77;;
31798;SDS011;18374;51.136;3.502;2023-05-14T05:43:50;41.15;;;21.35;;
31798;SDS011;18374;51.136;3.502;2023-05-14T05:46:18;39.53;;;24.33;;
31798;SDS011;18374;51.136;3.502;2023-05-14T05:48:46;46.80;;;25.27;;
31798;SDS011;18374;51.136;3.502;2023-05-14T05:51:13;42.03;;;23.90;;
31798;SDS011;18374;51.136;3.502;2023-05-14T05:53:41;52.92;;;25.50;;
31798;SDS011;18374;51.136;3.502;2023-05-14T05:56:09;46.15;;;25.92;;
31798;SDS011;18374;51.136;3.502;2023-05-14T05:58:37;53.08;;;25.52;;
31798;SDS011;18374;51.136;3.502;2023-05-14T06:01:05;42.50;;;23.45;;
31798;SDS011;18374;51.136;3.502;2023-05-14T06:03:32;37.88;;;22.10;;
31798;SDS011;18374;51.136;3.502;2023-05-14T06:06:00;40.60;;;22.65;;
31798;SDS011;18374;51.136;3.502;2023-05-14T06:08:28;40.42;;;24.33;;
31798;SDS011;18374;51.136;3.502;2023-05-14T06:10:55;35.67;;;21.30;;
31798;SDS011;18374;51.136;3.502;2023-05-14T06:13:23;50.22;;;23.73;;
31798;SDS011;18374;51.136;3.502;2023-05-14T06:15:51;44.97;;;23.88;;
31798;SDS011;18374;51.136;3.502;2023-05-14T06:18:19;40.70;;;24.10;;
31798;SDS011;18374;51.136;3.502;2023-05-14T06:20:46;49.90;;;24.13;;
31798;SDS011;18374;51.136;3.502;2023-05-14T06:23:14;42.53;;;24.55;;
31798;SDS011;18374;51.136;3.502;2023-05-14T06:25:42;44.72;;;25.17;;
31798;SDS011;18374;51.136;3.502;2023-05-14T06:28:10;46.17;;;25.30;;
31798;SDS011;18374;51.136;3.502;2023-05-14T06:30:38;45.22;;;25.65;;
31798;SDS011;18374;51.136;3.502;2023-05-14T06:33:05;44.20;;;25.50;;
31798;SDS011;18374;51.136;3.502;2023-05-14T06:35:33;39.63;;;23.23;;
31798;SDS011;18374;51.136;3.502;2023-05-14T06:38:01;42.83;;;24.20;;
31798;SDS011;18374;51.136;3.502;2023-05-14T06:40:29;48.75;;;24.63;;
31798;SDS011;18374;51.136;3.502;2023-05-14T06:42:56;45.33;;;23.58;;
31798;SDS011;18374;51.136;3.502;2023-05-14T06:45:24;41.13;;;24.52;;
31798;SDS011;18374;51.136;3.502;2023-05-14T06:47:52;47.90;;;24.95;;
31798;SDS011;18374;51.136;3.502;2023-05-14T06:50:20;39.78;;;23.70;;
31798;SDS011;18374;51.136;3.502;2023-05-14T06:52:48;47.00;;;24.95;;
31798;SDS011;18374;51.136;3.502;2023-05-14T06:55:15;43.92;;;23.23;;
31798;SDS011;18374;51.136;3.502;2023-05-14T06:57:43;39.15;;;22.92;;
31798;SDS011;18374;51.136;3.502;2023-05-14T07:00:11;36.95;;;23.00;;
31798;SDS011;18374;51.136;3.502;2023-05-14T07:02:40;42.92;;;22.80;;
31798;SDS011;18374;51.136;3.502;2023-05-14T07:05:09;43.42;;;23.73;;
31798;SDS011;18374;51.136;3.502;2023-05-14T07:07:36;40.05;;;22.40;;
31798;SDS011;18374;51.136;3.502;2023-05-14T07:10:04;37.80;;;22.90;;
31798;SDS011;18374;51.136;3.502;2023-05-14T07:12:34;37.13;;;23.60;;
31798;SDS011;18374;51.136;3.502;2023-05-14T07:15:01;36.88;;;23.27;;
31798;SDS011;18374;51.136;3.502;2023-05-14T07:17:29;36.80;;;20.88;;
31798;SDS011;18374;51.136;3.502;2023-05-14T07:19:57;32.90;;;20.15;;
31798;SDS011;18374;51.136;3.502;2023-05-14T07:22:25;37.88;;;21.50;;
31798;SDS011;18374;51.136;3.502;2023-05-14T07:24:52;32.83;;;21.02;;
31798;SDS011;18374;51.136;3.502;2023-05-14T07:27:20;33.85;;;20.58;;
31798;SDS011;18374;51.136;3.502;2023-05-14T07:29:48;32.58;;;19.77;;
31798;SDS011;18374;51.136;3.502;2023-05-14T07:32:16;39.00;;;20.85;;
31798;SDS011;18374;51.136;3.502;2023-05-14T07:34:44;34.72;;;19.73;;
31798;SDS011;18374;51.136;3.502;2023-05-14T07:37:12;30.52;;;19.50;;
31798;SDS011;18374;51.136;3.502;2023-05-14T07:39:39;37.95;;;19.77;;
31798;SDS011;18374;51.136;3.502;2023-05-14T07:42:07;31.38;;;18.45;;
31798;SDS011;18374;51.136;3.502;2023-05-14T07:44:35;32.53;;;19.02;;
31798;SDS011;18374;51.136;3.502;2023-05-14T07:47:03;28.02;;;17.48;;
31798;SDS011;18374;51.136;3.502;2023-05-14T07:49:33;28.70;;;18.55;;
31798;SDS011;18374;51.136;3.502;2023-05-14T07:52:01;30.73;;;17.17;;
31798;SDS011;18374;51.136;3.502;2023-05-14T07:54:29;29.83;;;17.52;;
31798;SDS011;18374;51.136;3.502;2023-05-14T07:56:56;27.67;;;18.30;;
31798;SDS011;18374;51.136;3.502;2023-05-14T07:59:24;29.52;;;17.70;;
31798;SDS011;18374;51.136;3.502;2023-05-14T08:01:52;29.67;;;18.02;;
31798;SDS011;18374;51.136;3.502;2023-05-14T08:04:19;29.58;;;17.00;;
31798;SDS011;18374;51.136;3.502;2023-05-14T08:06:49;24.63;;;16.17;;
31798;SDS011;18374;51.136;3.502;2023-05-14T08:09:17;25.05;;;15.43;;
31798;SDS011;18374;51.136;3.502;2023-05-14T08:11:45;26.27;;;15.43;;
31798;SDS011;18374;51.136;3.502;2023-05-14T08:14:13;30.08;;;14.10;;
31798;SDS011;18374;51.136;3.502;2023-05-14T08:16:40;24.92;;;14.23;;
31798;SDS011;18374;51.136;3.502;2023-05-14T08:19:08;24.25;;;14.05;;
31798;SDS011;18374;51.136;3.502;2023-05-14T08:21:36;23.95;;;14.20;;
31798;SDS011;18374;51.136;3.502;2023-05-14T08:24:04;24.27;;;14.07;;
31798;SDS011;18374;51.136;3.502;2023-05-14T08:26:32;22.38;;;13.80;;
31798;SDS011;18374;51.136;3.502;2023-05-14T08:29:00;25.48;;;14.27;;
31798;SDS011;18374;51.136;3.502;2023-05-14T08:31:28;24.77;;;14.40;;
31798;SDS011;18374;51.136;3.502;2023-05-14T08:33:56;24.08;;;13.73;;
31798;SDS011;18374;51.136;3.502;2023-05-14T08:36:23;23.92;;;14.57;;
31798;SDS011;18374;51.136;3.502;2023-05-14T08:38:51;21.63;;;14.85;;
31798;SDS011;18374;51.136;3.502;2023-05-14T08:41:19;24.20;;;14.85;;
31798;SDS011;18374;51.136;3.502;2023-05-14T08:43:56;21.13;;;14.27;;
31798;SDS011;18374;51.136;3.502;2023-05-14T08:46:31;27.73;;;15.30;;
31798;SDS011;18374;51.136;3.502;2023-05-14T08:49:02;23.05;;;15.25;;
31798;SDS011;18374;51.136;3.502;2023-05-14T08:51:58;27.83;;;14.80;;
31798;SDS011;18374;51.136;3.502;2023-05-14T08:54:26;22.17;;;13.23;;
31798;SDS011;18374;51.136;3.502;2023-05-14T08:56:55;23.73;;;13.75;;
31798;SDS011;18374;51.136;3.502;2023-05-14T08:59:23;22.90;;;13.02;;
31798;SDS011;18374;51.136;3.502;2023-05-14T09:01:52;22.73;;;16.35;;
31798;SDS011;18374;51.136;3.502;2023-05-14T09:04:22;18.92;;;13.30;;
31798;SDS011;18374;51.136;3.502;2023-05-14T09:06:51;22.25;;;13.73;;
31798;SDS011;18374;51.136;3.502;2023-05-14T09:09:20;21.77;;;12.95;;
31798;SDS011;18374;51.136;3.502;2023-05-14T09:11:49;19.33;;;12.15;;
31798;SDS011;18374;51.136;3.502;2023-05-14T09:14:19;18.65;;;11.68;;
31798;SDS011;18374;51.136;3.502;2023-05-14T09:16:48;21.58;;;12.00;;
31798;SDS011;18374;51.136;3.502;2023-05-14T09:19:17;18.70;;;11.52;;
31798;SDS011;18374;51.136;3.502;2023-05-14T09:21:46;13.15;;;10.13;;
31798;SDS011;18374;51.136;3.502;2023-05-14T09:24:22;16.27;;;10.80;;
31798;SDS011;18374;51.136;3.502;2023-05-14T09:26:56;20.20;;;12.38;;
31798;SDS011;18374;51.136;3.502;2023-05-14T09:29:25;14.65;;;11.18;;
31798;SDS011;18374;51.136;3.502;2023-05-14T09:31:55;16.70;;;10.52;;
31798;SDS011;18374;51.136;3.502;2023-05-14T09:37:04;13.43;;;9.48;;
31798;SDS011;18374;51.136;3.502;2023-05-14T09:39:35;19.17;;;10.00;;
31798;SDS011;18374;51.136;3.502;2023-05-14T09:42:04;14.95;;;9.80;;
31798;SDS011;18374;51.136;3.502;2023-05-14T09:44:32;23.58;;;9.90;;
31798;SDS011;18374;51.136;3.502;2023-05-14T09:47:02;13.65;;;9.98;;
31798;SDS011;18374;51.136;3.502;2023-05-14T09:49:30;11.93;;;8.48;;
31798;SDS011;18374;51.136;3.502;2023-05-14T09:51:58;13.75;;;9.98;;
31798;SDS011;18374;51.136;3.502;2023-05-14T09:54:29;15.40;;;9.43;;
31798;SDS011;18374;51.136;3.502;2023-05-14T09:56:59;12.98;;;9.05;;
31798;SDS011;18374;51.136;3.502;2023-05-14T09:59:26;14.20;;;9.18;;
31798;SDS011;18374;51.136;3.502;2023-05-14T10:01:54;14.85;;;10.18;;
31798;SDS011;18374;51.136;3.502;2023-05-14T10:04:24;12.43;;;8.85;;
31798;SDS011;18374;51.136;3.502;2023-05-14T10:06:52;15.43;;;8.40;;
31798;SDS011;18374;51.136;3.502;2023-05-14T10:09:20;15.20;;;9.90;;
31798;SDS011;18374;51.136;3.502;2023-05-14T10:11:52;12.85;;;8.18;;
31798;SDS011;18374;51.136;3.502;2023-05-14T10:14:27;17.48;;;8.93;;
31798;SDS011;18374;51.136;3.502;2023-05-14T10:19:29;14.45;;;8.63;;
31798;SDS011;18374;51.136;3.502;2023-05-14T10:22:04;17.52;;;9.32;;
31798;SDS011;18374;51.136;3.502;2023-05-14T10:24:34;12.95;;;8.88;;
31798;SDS011;18374;51.136;3.502;2023-05-14T10:27:04;11.98;;;8.73;;
31798;SDS011;18374;51.136;3.502;2023-05-14T10:29:33;11.43;;;8.63;;
31798;SDS011;18374;51.136;3.502;2023-05-14T10:32:04;12.52;;;8.32;;
31798;SDS011;18374;51.136;3.502;2023-05-14T10:34:37;18.20;;;10.93;;
31798;SDS011;18374;51.136;3.502;2023-05-14T10:37:15;16.20;;;9.55;;
31798;SDS011;18374;51.136;3.502;2023-05-14T10:42:21;14.43;;;9.95;;
31798;SDS011;18374;51.136;3.502;2023-05-14T10:44:56;16.67;;;9.57;;
31798;SDS011;18374;51.136;3.502;2023-05-14T10:47:36;21.00;;;10.73;;
31798;SDS011;18374;51.136;3.502;2023-05-14T10:50:07;20.40;;;10.45;;
31798;SDS011;18374;51.136;3.502;2023-05-14T10:52:39;13.88;;;10.02;;
31798;SDS011;18374;51.136;3.502;2023-05-14T10:55:12;13.02;;;9.13;;
31798;SDS011;18374;51.136;3.502;2023-05-14T10:57:44;15.40;;;9.88;;
31798;SDS011;18374;51.136;3.502;2023-05-14T11:00:13;14.82;;;9.07;;
31798;SDS011;18374;51.136;3.502;2023-05-14T11:02:42;17.60;;;9.73;;
31798;SDS011;18374;51.136;3.502;2023-05-14T11:05:14;15.13;;;9.73;;
31798;SDS011;18374;51.136;3.502;2023-05-14T11:07:46;16.65;;;10.38;;
31798;SDS011;18374;51.136;3.502;2023-05-14T11:10:16;18.05;;;10.60;;
31798;SDS011;18374;51.136;3.502;2023-05-14T11:12:46;15.27;;;10.38;;
31798;SDS011;18374;51.136;3.502;2023-05-14T11:15:17;15.68;;;9.75;;
31798;SDS011;18374;51.136;3.502;2023-05-14T11:17:48;17.30;;;9.88;;
31798;SDS011;18374;51.136;3.502;2023-05-14T11:20:17;16.90;;;11.23;;
31798;SDS011;18374;51.136;3.502;2023-05-14T11:22:46;17.02;;;9.80;;
31798;SDS011;18374;51.136;3.502;2023-05-14T11:25:15;19.55;;;10.30;;
31798;SDS011;18374;51.136;3.502;2023-05-14T11:27:44;21.75;;;10.48;;
31798;SDS011;18374;51.136;3.502;2023-05-14T11:30:17;18.23;;;10.95;;
31798;SDS011;18374;51.136;3.502;2023-05-14T11:32:47;14.95;;;9.35;;
31798;SDS011;18374;51.136;3.502;2023-05-14T11:35:15;14.68;;;9.15;;
31798;SDS011;18374;51.136;3.502;2023-05-14T11:37:50;14.77;;;9.32;;
31798;SDS011;18374;51.136;3.502;2023-05-14T11:40:18;19.80;;;9.90;;
31798;SDS011;18374;51.136;3.502;2023-05-14T11:42:48;17.35;;;10.98;;
31798;SDS011;18374;51.136;3.502;2023-05-14T11:45:24;19.13;;;10.25;;
31798;SDS011;18374;51.136;3.502;2023-05-14T11:47:53;14.80;;;10.38;;
31798;SDS011;18374;51.136;3.502;2023-05-14T11:50:21;19.02;;;10.73;;
31798;SDS011;18374;51.136;3.502;2023-05-14T11:52:50;18.33;;;10.85;;
31798;SDS011;18374;51.136;3.502;2023-05-14T11:55:22;18.20;;;11.18;;
31798;SDS011;18374;51.136;3.502;2023-05-14T11:57:50;16.58;;;11.05;;
31798;SDS011;18374;51.136;3.502;2023-05-14T12:00:18;15.90;;;11.85;;
31798;SDS011;18374;51.136;3.502;2023-05-14T12:02:48;17.38;;;11.00;;
31798;SDS011;18374;51.136;3.502;2023-05-14T12:05:17;24.63;;;10.52;;
31798;SDS011;18374;51.136;3.502;2023-05-14T12:07:45;18.35;;;10.10;;
31798;SDS011;18374;51.136;3.502;2023-05-14T12:10:13;20.73;;;11.50;;
31798;SDS011;18374;51.136;3.502;2023-05-14T12:12:43;16.95;;;10.13;;
31798;SDS011;18374;51.136;3.502;2023-05-14T12:15:14;15.00;;;9.18;;
31798;SDS011;18374;51.136;3.502;2023-05-14T12:17:48;15.95;;;9.75;;
31798;SDS011;18374;51.136;3.502;2023-05-14T12:20:18;12.90;;;8.93;;
31798;SDS011;18374;51.136;3.502;2023-05-14T12:22:46;16.65;;;8.95;;
31798;SDS011;18374;51.136;3.502;2023-05-14T12:25:14;18.25;;;9.45;;
31798;SDS011;18374;51.136;3.502;2023-05-14T12:27:43;16.15;;;9.43;;
31798;SDS011;18374;51.136;3.502;2023-05-14T12:30:12;14.13;;;8.38;;
31798;SDS011;18374;51.136;3.502;2023-05-14T12:32:43;20.27;;;9.00;;
31798;SDS011;18374;51.136;3.502;2023-05-14T12:35:11;18.90;;;8.73;;
31798;SDS011;18374;51.136;3.502;2023-05-14T12:37:39;13.02;;;8.30;;
31798;SDS011;18374;51.136;3.502;2023-05-14T12:40:08;14.73;;;8.75;;
31798;SDS011;18374;51.136;3.502;2023-05-14T12:42:36;14.88;;;8.80;;
31798;SDS011;18374;51.136;3.502;2023-05-14T12:45:04;15.18;;;9.23;;
31798;SDS011;18374;51.136;3.502;2023-05-14T12:47:34;16.38;;;9.73;;
31798;SDS011;18374;51.136;3.502;2023-05-14T12:50:03;15.20;;;9.48;;
31798;SDS011;18374;51.136;3.502;2023-05-14T12:52:32;15.50;;;10.10;;
31798;SDS011;18374;51.136;3.502;2023-05-14T12:55:06;21.52;;;11.63;;
31798;SDS011;18374;51.136;3.502;2023-05-14T12:57:36;17.13;;;9.95;;
31798;SDS011;18374;51.136;3.502;2023-05-14T13:00:06;22.10;;;9.10;;
31798;SDS011;18374;51.136;3.502;2023-05-14T13:02:40;19.67;;;9.77;;
31798;SDS011;18374;51.136;3.502;2023-05-14T13:05:10;13.38;;;9.00;;
31798;SDS011;18374;51.136;3.502;2023-05-14T13:07:38;13.35;;;9.10;;
31798;SDS011;18374;51.136;3.502;2023-05-14T13:10:06;19.00;;;9.23;;
31798;SDS011;18374;51.136;3.502;2023-05-14T13:12:35;15.93;;;10.68;;
31798;SDS011;18374;51.136;3.502;2023-05-14T13:15:03;13.77;;;8.93;;
31798;SDS011;18374;51.136;3.502;2023-05-14T13:17:31;17.05;;;10.10;;
31798;SDS011;18374;51.136;3.502;2023-05-14T13:19:59;14.38;;;9.55;;
31798;SDS011;18374;51.136;3.502;2023-05-14T13:22:27;17.05;;;9.27;;
31798;SDS011;18374;51.136;3.502;2023-05-14T13:24:55;19.50;;;9.82;;
31798;SDS011;18374;51.136;3.502;2023-05-14T13:27:23;16.08;;;9.88;;
31798;SDS011;18374;51.136;3.502;2023-05-14T13:29:51;15.23;;;9.73;;
31798;SDS011;18374;51.136;3.502;2023-05-14T13:32:19;12.73;;;9.43;;
31798;SDS011;18374;51.136;3.502;2023-05-14T13:34:47;17.75;;;8.35;;
31798;SDS011;18374;51.136;3.502;2023-05-14T13:37:15;9.68;;;7.43;;
31798;SDS011;18374;51.136;3.502;2023-05-14T13:39:42;12.45;;;8.02;;
31798;SDS011;18374;51.136;3.502;2023-05-14T13:42:10;14.52;;;8.23;;
31798;SDS011;18374;51.136;3.502;2023-05-14T13:44:38;11.98;;;9.20;;
31798;SDS011;18374;51.136;3.502;2023-05-14T13:47:06;15.73;;;8.95;;
31798;SDS011;18374;51.136;3.502;2023-05-14T13:49:34;16.35;;;9.88;;
31798;SDS011;18374;51.136;3.502;2023-05-14T13:52:01;14.68;;;9.43;;
31798;SDS011;18374;51.136;3.502;2023-05-14T13:54:29;18.30;;;9.85;;
31798;SDS011;18374;51.136;3.502;2023-05-14T13:56:57;15.32;;;9.45;;
31798;SDS011;18374;51.136;3.502;2023-05-14T13:59:25;16.02;;;10.15;;
31798;SDS011;18374;51.136;3.502;2023-05-14T14:01:53;15.18;;;10.18;;
31798;SDS011;18374;51.136;3.502;2023-05-14T14:04:21;15.68;;;10.07;;
31798;SDS011;18374;51.136;3.502;2023-05-14T14:06:51;19.77;;;10.95;;
31798;SDS011;18374;51.136;3.502;2023-05-14T14:09:19;17.17;;;10.50;;
31798;SDS011;18374;51.136;3.502;2023-05-14T14:11:47;15.70;;;10.60;;
31798;SDS011;18374;51.136;3.502;2023-05-14T14:14:16;17.00;;;10.40;;
31798;SDS011;18374;51.136;3.502;2023-05-14T14:16:44;13.90;;;10.27;;
31798;SDS011;18374;51.136;3.502;2023-05-14T14:19:12;15.10;;;10.27;;
31798;SDS011;18374;51.136;3.502;2023-05-14T14:21:43;15.90;;;9.73;;
31798;SDS011;18374;51.136;3.502;2023-05-14T14:24:11;16.30;;;10.38;;
31798;SDS011;18374;51.136;3.502;2023-05-14T14:26:39;18.80;;;10.80;;
31798;SDS011;18374;51.136;3.502;2023-05-14T14:29:06;15.05;;;10.63;;
31798;SDS011;18374;51.136;3.502;2023-05-14T14:31:34;12.70;;;10.05;;
31798;SDS011;18374;51.136;3.502;2023-05-14T14:34:02;14.30;;;9.32;;
31798;SDS011;18374;51.136;3.502;2023-05-14T14:36:30;16.38;;;10.07;;
31798;SDS011;18374;51.136;3.502;2023-05-14T14:38:58;18.55;;;10.40;;
31798;SDS011;18374;51.136;3.502;2023-05-14T14:41:25;13.57;;;10.40;;